Time;durP1;ratioP1;P1;durP2;ratioP2;P2;SDS_P1;SDS_P2;PMS_P1;PMS_P2;Temp;Humidity;BMP_temperature;BMP_pressure;BME280_temperature;BME280_humidity;BME280_pressure;Samples;Min_cycle;Max_cycle;Signal;HPM_P1;HPM_P2
2023/06/13 00:01:22;;;;;;;6.47;5.30;;;23.00;32.00;;;25.76;26.28;101658.78;5053498;28;20196;-63
2023/06/13 00:03:49;;;;;;;6.87;5.50;;;23.10;32.30;;;25.71;26.33;101661.41;5045264;28;20200;-64
2023/06/13 00:06:17;;;;;;;9.10;5.67;;;23.00;32.20;;;25.65;25.76;101659.75;5053937;28;20209;-63
2023/06/13 00:08:44;;;;;;;6.73;5.17;;;22.90;32.40;;;25.58;25.96;101661.81;5048673;28;20284;-65
2023/06/13 00:11:11;;;;;;;6.90;5.80;;;22.90;32.60;;;25.51;26.05;101662.81;5042148;28;20260;-64
2023/06/13 00:13:39;;;;;;;6.27;5.47;;;22.80;32.40;;;25.46;26.71;101660.03;5033566;28;20187;-64
2023/06/13 00:16:06;;;;;;;6.50;5.90;;;22.70;32.60;;;25.43;26.66;101660.53;5039615;28;20342;-64
2023/06/13 00:18:35;;;;;;;5.77;5.17;;;22.70;32.60;;;25.41;26.50;101661.84;5042084;28;20261;-63
2023/06/13 00:21:03;;;;;;;8.63;6.27;;;22.70;32.70;;;25.37;26.24;101661.50;5040987;28;20218;-64
2023/06/13 00:23:32;;;;;;;7.40;5.87;;;22.60;33.30;;;25.31;26.18;101667.91;5065640;28;20300;-64
2023/06/13 00:25:59;;;;;;;5.87;4.90;;;22.60;32.60;;;25.27;26.41;101665.97;5066051;28;20269;-64
2023/06/13 00:28:26;;;;;;;8.67;5.27;;;22.50;32.80;;;25.23;26.16;101662.94;5065717;28;20276;-64
2023/06/13 00:30:53;;;;;;;5.73;5.10;;;22.50;32.80;;;25.20;26.79;101668.81;5064064;28;20289;-64
2023/06/13 00:33:20;;;;;;;6.03;4.97;;;22.50;32.80;;;25.18;26.55;101662.88;5065037;28;20186;-64
2023/06/13 00:35:47;;;;;;;6.13;5.53;;;22.50;33.10;;;25.17;26.71;101663.94;5057408;28;20284;-66
2023/06/13 00:38:14;;;;;;;7.33;5.03;;;22.50;33.20;;;25.15;26.61;101660.66;5045066;28;20676;-63
2023/06/13 00:40:43;;;;;;;5.93;5.40;;;22.40;33.10;;;25.13;26.72;101662.78;5051324;28;20182;-63
2023/06/13 00:43:11;;;;;;;5.87;5.27;;;22.40;33.20;;;25.10;26.73;101660.63;5064086;28;20201;-64
2023/06/13 00:45:38;;;;;;;5.83;4.83;;;22.30;33.10;;;25.07;26.81;101665.66;5060065;28;20217;-65
2023/06/13 00:48:07;;;;;;;5.23;4.30;;;22.30;33.40;;;25.06;26.86;101664.03;5056296;28;20217;-64
2023/06/13 00:50:40;;;;;;;7.30;4.83;;;22.40;33.40;;;25.03;27.32;101668.03;5055877;28;20213;-63
2023/06/13 00:53:10;;;;;;;4.80;4.40;;;22.30;33.30;;;25.01;27.07;101672.06;5054641;28;20244;-63
2023/06/13 00:55:38;;;;;;;5.47;4.97;;;22.30;33.40;;;24.98;26.82;101667.97;5055448;28;20292;-63
2023/06/13 00:58:07;;;;;;;9.77;5.70;;;22.30;33.30;;;24.95;27.05;101663.06;5055601;28;20674;-63
2023/06/13 01:00:36;;;;;;;5.73;5.17;;;22.30;33.40;;;24.94;27.00;101666.81;5055277;28;20197;-63
2023/06/13 01:03:07;;;;;;;6.73;4.80;;;22.30;33.40;;;24.91;27.13;101651.16;5055534;28;20619;-63
2023/06/13 01:05:34;;;;;;;6.57;4.90;;;22.20;33.40;;;24.89;27.21;101653.28;5055647;28;20231;-63
2023/06/13 01:08:09;;;;;;;6.97;4.97;;;22.20;33.50;;;24.84;26.71;101664.00;5048288;28;20198;-63
2023/06/13 01:10:40;;;;;;;6.63;4.83;;;22.10;33.20;;;24.81;27.29;101661.78;5035486;28;20245;-63
2023/06/13 01:13:18;;;;;;;5.37;4.87;;;22.10;33.50;;;24.76;26.97;101658.97;5034845;28;20195;-62
2023/06/13 01:15:56;;;;;;;5.30;4.53;;;22.10;33.60;;;24.73;27.17;101659.47;5035238;28;20564;-63
2023/06/13 01:18:30;;;;;;;5.23;4.73;;;22.10;33.60;;;24.71;27.51;101657.03;5035334;28;20277;-61
2023/06/13 01:21:00;;;;;;;8.27;4.97;;;22.00;33.50;;;24.69;27.37;101658.31;5035310;28;20186;-63
2023/06/13 01:23:44;;;;;;;5.27;4.80;;;22.00;33.50;;;24.65;26.79;101654.50;5034835;28;20349;-62
2023/06/13 01:26:22;;;;;;;8.10;5.20;;;22.00;33.50;;;24.62;27.35;101650.41;5046942;28;20218;-63
2023/06/13 01:28:52;;;;;;;7.83;4.60;;;22.00;33.70;;;24.62;26.93;101654.97;5054953;28;20170;-64
2023/06/13 01:31:23;;;;;;;5.63;4.60;;;21.90;33.60;;;24.58;27.42;101659.22;5054556;28;20210;-63
2023/06/13 01:33:51;;;;;;;5.67;4.50;;;21.90;33.70;;;24.52;27.25;101657.50;5054580;28;20186;-63
2023/06/13 01:36:19;;;;;;;5.30;4.80;;;21.90;33.90;;;24.49;27.49;101655.28;5054602;28;20670;-62
2023/06/13 01:38:48;;;;;;;4.80;4.33;;;21.80;34.00;;;24.47;27.37;101655.53;5054560;28;20193;-62
2023/06/13 01:41:15;;;;;;;6.73;4.97;;;21.80;33.90;;;24.45;27.59;101654.16;5053630;28;20189;-62
2023/06/13 01:43:42;;;;;;;5.83;4.83;;;21.80;34.00;;;24.42;27.62;101652.75;5034364;28;20263;-62
2023/06/13 01:46:23;;;;;;;5.87;4.37;;;21.70;34.00;;;24.37;27.45;101641.06;5034276;28;20210;-63
2023/06/13 01:49:02;;;;;;;5.03;4.53;;;21.70;33.90;;;24.34;27.36;101649.66;5034440;28;20190;-66
2023/06/13 01:51:38;;;;;;;6.80;4.53;;;21.70;34.10;;;24.30;27.37;101653.88;5034460;28;20717;-62
2023/06/13 01:54:11;;;;;;;5.77;5.03;;;21.60;33.80;;;24.23;27.50;101660.25;5034119;28;20233;-63
2023/06/13 01:56:42;;;;;;;4.57;4.13;;;21.60;33.80;;;24.18;27.42;101651.25;5034529;28;20572;-63
2023/06/13 01:59:15;;;;;;;6.30;5.03;;;21.50;33.80;;;24.13;27.83;101643.09;5045363;28;20265;-62
2023/06/13 02:01:45;;;;;;;6.33;5.73;;;21.50;34.10;;;24.08;27.76;101648.41;5053925;28;20296;-63
2023/06/13 02:04:12;;;;;;;5.57;4.90;;;21.40;34.20;;;24.03;27.83;101643.69;5055073;28;20190;-62
2023/06/13 02:06:39;;;;;;;7.87;4.50;;;21.40;34.40;;;24.01;27.98;101640.41;5054067;28;20264;-63
2023/06/13 02:09:06;;;;;;;7.10;4.93;;;21.30;35.00;;;24.01;28.00;101647.69;5037158;28;20281;-63
2023/06/13 02:11:33;;;;;;;4.13;3.83;;;21.30;34.70;;;23.99;28.05;101641.72;5034157;28;20695;-62
2023/06/13 02:14:00;;;;;;;6.67;4.10;;;21.30;34.50;;;23.98;28.09;101640.09;5033602;28;20194;-63
2023/06/13 02:16:29;;;;;;;4.50;4.10;;;21.30;34.50;;;23.97;28.10;101641.97;5048286;28;20698;-63
2023/06/13 02:18:59;;;;;;;5.23;4.67;;;21.30;34.60;;;23.98;28.09;101640.09;5053691;28;20193;-61
2023/06/13 02:21:28;;;;;;;5.07;4.20;;;21.30;34.70;;;23.97;28.07;101638.44;5053820;28;20535;-63
2023/06/13 02:23:55;;;;;;;6.00;4.50;;;21.30;34.60;;;23.93;28.20;101638.13;5053542;28;20263;-64
2023/06/13 02:26:23;;;;;;;6.57;4.50;;;21.30;34.80;;;23.91;28.09;101640.25;5053768;28;20217;-62
2023/06/13 02:28:50;;;;;;;7.83;4.37;;;21.20;34.60;;;23.88;28.06;101639.91;5053668;28;20219;-63
2023/06/13 02:31:17;;;;;;;6.37;3.87;;;21.20;35.20;;;23.85;28.08;101641.19;5053614;28;20688;-63
2023/06/13 02:33:45;;;;;;;5.30;3.90;;;21.20;34.60;;;23.82;28.14;101638.97;5035122;28;20671;-63
2023/06/13 02:36:13;;;;;;;4.93;4.40;;;21.10;34.60;;;23.81;28.22;101642.75;5034111;28;20215;-63
2023/06/13 02:38:41;;;;;;;8.20;4.27;;;21.10;34.70;;;23.81;28.25;101642.75;5032968;28;20559;-63
2023/06/13 02:41:08;;;;;;;5.43;4.40;;;21.10;34.80;;;23.79;28.23;101639.47;5044150;28;20190;-63
2023/06/13 02:43:35;;;;;;;8.60;4.50;;;21.10;34.70;;;23.76;28.10;101642.63;5053122;28;20288;-63
2023/06/13 02:46:03;;;;;;;7.37;4.03;;;21.10;34.70;;;23.73;28.21;101648.50;5033952;28;20309;-63
2023/06/13 02:48:30;;;;;;;4.87;4.33;;;21.10;34.70;;;23.66;28.27;101641.59;5033646;28;20202;-63
2023/06/13 02:50:57;;;;;;;5.03;3.77;;;21.00;34.70;;;23.61;28.40;101633.44;5033277;28;20260;-63
2023/06/13 02:53:25;;;;;;;4.93;4.13;;;20.90;34.90;;;23.57;28.35;101638.50;5033507;28;20729;-64
2023/06/13 02:55:54;;;;;;;6.30;4.30;;;20.90;35.00;;;23.54;28.51;101645.16;5042067;28;20590;-63
2023/06/13 02:58:21;;;;;;;4.77;4.37;;;20.90;35.10;;;23.51;28.68;101640.25;5047742;28;20190;-63
2023/06/13 03:00:48;;;;;;;6.60;4.03;;;20.80;35.30;;;23.51;28.74;101640.25;5036202;28;20187;-63
2023/06/13 03:03:20;;;;;;;8.10;4.73;;;20.80;35.30;;;23.52;28.46;101641.06;5051479;28;20202;-63
2023/06/13 03:05:48;;;;;;;6.67;4.47;;;20.80;35.30;;;23.53;28.70;101635.44;5053004;28;20214;-64
2023/06/13 03:08:18;;;;;;;7.10;4.63;;;20.80;35.30;;;23.56;28.64;101636.84;5043316;28;20562;-64
2023/06/13 03:10:48;;;;;;;4.70;4.20;;;20.80;35.30;;;23.54;28.63;101636.25;5040747;28;20209;-64
2023/06/13 03:13:18;;;;;;;10.40;4.03;;;20.80;35.30;;;23.53;28.69;101642.72;5041176;28;20246;-63
2023/06/13 03:15:47;;;;;;;4.50;3.80;;;20.80;35.30;;;23.47;28.52;101636.41;5033248;28;20222;-63
2023/06/13 03:18:14;;;;;;;5.43;4.03;;;20.80;35.50;;;23.46;28.73;101636.66;5033327;28;20240;-62
2023/06/13 03:20:47;;;;;;;5.17;4.10;;;20.80;35.40;;;23.39;28.68;101642.13;5033030;28;20222;-63
2023/06/13 03:23:15;;;;;;;5.47;4.23;;;20.70;35.30;;;23.34;28.98;101642.00;5031964;28;20197;-63
2023/06/13 03:25:43;;;;;;;5.50;4.20;;;20.70;35.50;;;23.30;28.76;101642.72;5033148;28;20257;-62
2023/06/13 03:28:11;;;;;;;7.87;4.50;;;20.60;35.50;;;23.26;29.08;101636.19;5051706;28;20201;-63
2023/06/13 03:30:38;;;;;;;5.97;3.90;;;20.60;35.80;;;23.21;29.32;101634.19;5053579;28;20686;-62
2023/06/13 03:33:06;;;;;;;6.53;4.57;;;20.50;35.70;;;23.20;29.04;101637.13;5052998;28;20553;-63
2023/06/13 03:35:34;;;;;;;5.53;4.27;;;20.50;36.00;;;23.20;29.17;101647.88;5052865;28;20210;-63
2023/06/13 03:38:02;;;;;;;5.07;4.23;;;20.50;36.20;;;23.20;29.32;101647.88;5053241;28;20277;-63
2023/06/13 03:40:29;;;;;;;7.87;4.10;;;20.50;36.20;;;23.21;29.30;101638.75;5046487;28;20685;-63
2023/06/13 03:42:57;;;;;;;7.03;4.20;;;20.50;36.20;;;23.21;29.29;101636.06;5052667;28;20198;-64
2023/06/13 03:45:25;;;;;;;4.43;4.03;;;20.50;36.30;;;23.21;29.13;101633.38;5051900;28;20740;-63
2023/06/13 03:47:52;;;;;;;5.87;4.57;;;20.50;36.20;;;23.17;29.08;101642.97;5052859;28;20269;-63
2023/06/13 03:50:19;;;;;;;6.73;4.33;;;20.50;36.20;;;23.16;29.35;101642.16;5055817;28;20201;-62
2023/06/13 03:52:46;;;;;;;5.53;4.00;;;20.40;36.10;;;23.12;29.17;101641.00;5055896;28;20190;-63
2023/06/13 03:55:13;;;;;;;5.67;4.50;;;20.40;36.40;;;23.12;29.33;101646.38;5040166;28;20221;-62
2023/06/13 03:57:40;;;;;;;6.07;4.53;;;20.40;36.20;;;23.11;29.36;101649.25;5056699;28;20209;-63
2023/06/13 04:00:10;;;;;;;5.23;4.73;;;20.40;36.40;;;23.11;29.69;101654.63;5044385;28;20248;-63
2023/06/13 04:02:40;;;;;;;5.17;3.97;;;20.40;36.50;;;23.11;29.52;101649.25;5054010;28;20533;-63
2023/06/13 04:05:08;;;;;;;8.03;5.50;;;20.40;36.60;;;23.11;29.76;101655.47;5056027;28;20218;-63
2023/06/13 04:07:35;;;;;;;6.17;4.53;;;20.40;36.60;;;23.11;29.57;101649.25;5054717;28;20694;-63
2023/06/13 04:10:03;;;;;;;5.90;4.73;;;20.40;36.60;;;23.09;29.61;101654.06;5054699;28;20189;-61
2023/06/13 04:12:30;;;;;;;8.27;4.83;;;20.40;36.60;;;23.04;29.48;101648.56;5036821;28;20285;-63
2023/06/13 04:14:57;;;;;;;5.30;4.47;;;20.30;36.70;;;23.01;29.70;101646.38;5035608;28;20221;-63
2023/06/13 04:17:25;;;;;;;5.20;4.43;;;20.30;36.70;;;22.98;29.70;101654.91;5036076;28;20190;-64
2023/06/13 04:19:54;;;;;;;5.60;4.70;;;20.30;37.00;;;22.94;30.28;101657.22;5036268;28;20203;-63
2023/06/13 04:22:21;;;;;;;7.37;5.13;;;20.20;37.20;;;22.96;30.30;101662.38;5044175;28;20190;-63
2023/06/13 04:24:48;;;;;;;5.43;4.83;;;20.20;37.20;;;22.98;29.99;101661.09;5055543;28;20288;-64
2023/06/13 04:27:19;;;;;;;8.27;5.03;;;20.30;37.20;;;23.00;29.98;101655.47;5036003;28;20182;-64
2023/06/13 04:29:47;;;;;;;6.87;4.60;;;20.30;37.20;;;23.02;29.95;101656.06;5035847;28;20194;-64
2023/06/13 04:32:17;;;;;;;17.03;13.87;;;20.30;37.30;;;23.07;29.74;101656.16;5036067;28;20234;-62
2023/06/13 04:34:45;;;;;;;8.37;5.07;;;20.30;37.10;;;23.08;30.09;101660.50;5035181;28;20220;-63
2023/06/13 04:37:23;;;;;;;5.20;4.70;;;20.40;37.30;;;23.11;29.97;101660.00;5050379;28;20277;-62
2023/06/13 04:39:51;;;;;;;5.20;4.70;;;20.40;37.30;;;23.13;29.96;101657.94;5054682;28;20252;-64
2023/06/13 04:42:24;;;;;;;7.40;4.97;;;20.40;37.20;;;23.18;29.97;101658.84;5035585;28;20685;-63
2023/06/13 04:44:52;;;;;;;4.70;4.20;;;20.40;37.20;;;23.22;30.22;101651.16;5034997;28;20211;-63
2023/06/13 04:47:19;;;;;;;9.27;5.00;;;20.50;37.40;;;23.25;29.75;101656.06;5035496;28;20191;-63
2023/06/13 04:49:47;;;;;;;5.97;4.17;;;20.50;37.50;;;23.27;30.01;101651.25;5042453;28;20202;-63
2023/06/13 04:52:15;;;;;;;5.80;4.30;;;20.50;37.50;;;23.28;29.99;101655.56;5055181;28;20202;-65
2023/06/13 04:54:42;;;;;;;4.37;3.97;;;20.50;37.50;;;23.26;30.01;101655.00;5055127;28;20248;-64
2023/06/13 04:57:10;;;;;;;5.87;4.30;;;20.50;37.50;;;23.26;30.05;101657.69;5054313;28;20241;-63
2023/06/13 04:59:37;;;;;;;5.70;4.50;;;20.50;37.50;;;23.22;30.37;101651.97;5055146;28;20198;-63
2023/06/13 05:02:04;;;;;;;6.43;4.50;;;20.50;37.70;;;23.24;30.27;101657.09;5054678;28;20194;-62
2023/06/13 05:04:31;;;;;;;5.73;4.57;;;20.50;37.80;;;23.24;30.81;101659.78;5053876;28;20238;-64
2023/06/13 05:07:00;;;;;;;7.53;5.10;;;20.50;38.30;;;23.27;31.04;101654.75;5054454;28;20534;-62
2023/06/13 05:09:28;;;;;;;6.67;3.90;;;20.60;38.60;;;23.31;30.89;101655.09;5035293;28;20207;-65
2023/06/13 05:11:55;;;;;;;8.00;4.00;;;20.60;38.30;;;23.31;30.26;101649.72;5052225;28;20217;-64
2023/06/13 05:14:22;;;;;;;5.77;4.27;;;20.60;37.80;;;23.29;30.38;101651.84;5054505;28;20273;-64
2023/06/13 05:16:50;;;;;;;7.70;4.20;;;20.60;37.80;;;23.30;30.38;101654.28;5053514;28;20273;-62
2023/06/13 05:19:17;;;;;;;9.33;4.07;;;20.60;37.80;;;23.30;30.24;101654.28;5054155;28;20225;-65
2023/06/13 05:21:46;;;;;;;10.03;4.33;;;20.60;38.10;;;23.33;30.24;101658.38;5054229;28;20277;-63
2023/06/13 05:24:13;;;;;;;7.90;3.40;;;20.60;37.90;;;23.37;30.25;101660.38;5054255;28;20269;-64
2023/06/13 05:26:42;;;;;;;5.57;3.43;;;20.60;37.90;;;23.41;30.19;101660.72;5054733;28;20733;-64
2023/06/13 05:29:09;;;;;;;10.03;4.30;;;20.70;37.70;;;23.42;30.07;101651.59;5054105;28;20205;-66
2023/06/13 05:31:36;;;;;;;6.43;3.80;;;20.70;37.70;;;23.45;30.05;101659.19;5054138;28;20217;-63
2023/06/13 05:34:03;;;;;;;4.43;3.60;;;20.70;37.50;;;23.46;30.07;101653.56;5054106;28;20202;-63
2023/06/13 05:36:30;;;;;;;4.53;3.23;;;20.80;37.60;;;23.50;30.16;101659.31;5054316;28;20194;-63
2023/06/13 05:38:57;;;;;;;5.07;3.23;;;20.80;37.60;;;23.52;30.02;101657.19;5053916;28;20198;-63
2023/06/13 05:41:24;;;;;;;6.93;3.63;;;20.80;37.40;;;23.54;30.01;101660.47;5054132;28;20214;-62
2023/06/13 05:43:52;;;;;;;5.60;3.20;;;20.80;37.50;;;23.54;29.84;101660.47;5053212;28;20279;-63
2023/06/13 05:46:19;;;;;;;11.53;3.50;;;20.80;37.40;;;23.55;30.06;101659.41;5052945;28;20276;-63
2023/06/13 05:48:46;;;;;;;14.53;4.67;;;20.80;37.50;;;23.58;29.99;101658.13;5053134;28;20186;-63
2023/06/13 05:51:13;;;;;;;6.90;4.97;;;20.80;37.40;;;23.63;29.78;101659.03;5052999;28;20213;-64
2023/06/13 05:53:40;;;;;;;5.23;2.87;;;20.90;37.30;;;23.67;29.46;101665.59;5033445;28;20294;-64
2023/06/13 05:56:07;;;;;;;9.40;3.63;;;20.90;37.30;;;23.71;29.84;101650.59;5044273;28;20221;-64
2023/06/13 05:58:35;;;;;;;3.47;2.93;;;20.90;37.50;;;23.77;29.84;101655.00;5046217;28;20265;-64
2023/06/13 06:01:03;;;;;;;6.03;2.63;;;21.00;37.40;;;23.84;29.43;101654.91;5038325;28;20196;-66
2023/06/13 06:03:31;;;;;;;3.97;3.10;;;21.00;37.30;;;23.84;29.50;101646.81;5053173;28;20293;-62
2023/06/13 06:05:59;;;;;;;4.73;3.20;;;21.10;37.10;;;23.89;29.33;101645.03;5053752;28;20209;-64
2023/06/13 06:08:27;;;;;;;10.50;3.10;;;21.10;37.20;;;23.96;29.80;101640.31;5041473;28;20273;-63
2023/06/13 06:10:55;;;;;;;3.67;2.80;;;21.20;37.40;;;24.08;29.66;101643.81;5033856;28;20210;-63
2023/06/13 06:13:22;;;;;;;4.43;2.40;;;21.20;37.40;;;24.16;29.34;101642.59;5045260;28;20562;-64
2023/06/13 06:15:49;;;;;;;5.70;2.50;;;21.30;37.20;;;24.20;29.30;101644.56;5036322;28;20244;-64
2023/06/13 06:18:20;;;;;;;8.23;2.90;;;21.40;37.10;;;24.27;29.38;101632.84;5033301;28;20190;-64
2023/06/13 06:20:47;;;;;;;3.47;3.00;;;21.40;37.00;;;24.35;29.04;101638.63;5033732;28;20639;-63
2023/06/13 06:23:15;;;;;;;5.20;2.83;;;21.50;37.00;;;24.40;28.65;101637.91;5033137;28;20187;-63
2023/06/13 06:25:42;;;;;;;2.87;2.47;;;21.50;36.60;;;24.35;28.88;101635.13;5041058;28;20217;-63
2023/06/13 06:28:09;;;;;;;3.30;2.17;;;21.60;36.30;;;24.31;29.06;101639.38;5034197;28;20198;-62
2023/06/13 06:30:36;;;;;;;3.33;2.00;;;21.60;36.30;;;24.32;29.20;101635.63;5033438;28;20278;-63
2023/06/13 06:33:03;;;;;;;6.87;2.40;;;21.60;36.40;;;24.37;28.79;101635.69;5033438;28;20221;-65
2023/06/13 06:35:31;;;;;;;2.50;2.20;;;21.60;36.50;;;24.44;29.01;101637.16;5033225;28;20210;-64
2023/06/13 06:37:58;;;;;;;2.40;2.20;;;21.60;36.40;;;24.48;28.80;101629.44;5032985;28;20191;-64
2023/06/13 06:40:25;;;;;;;4.60;2.30;;;21.70;36.40;;;24.52;28.53;101625.19;5033429;28;20293;-65
2023/06/13 06:42:52;;;;;;;3.07;2.30;;;21.70;36.20;;;24.58;28.71;101632.31;5045321;28;20629;-63
2023/06/13 06:45:19;;;;;;;2.27;2.00;;;21.80;36.20;;;24.63;28.68;101621.59;5053328;28;20263;-64
2023/06/13 06:47:46;;;;;;;5.50;2.40;;;21.80;36.10;;;24.66;28.27;101632.69;5052928;28;20296;-65
2023/06/13 06:50:14;;;;;;;2.60;2.40;;;21.90;36.10;;;24.71;28.80;101632.78;5053632;28;20281;-63
2023/06/13 06:52:43;;;;;;;3.77;2.50;;;21.90;36.10;;;24.80;28.65;101627.81;5053053;28;20212;-64
2023/06/13 06:55:10;;;;;;;5.10;2.93;;;22.00;36.10;;;24.87;28.07;101628.47;5045566;28;20264;-64
2023/06/13 06:57:37;;;;;;;6.87;2.73;;;22.00;35.90;;;24.94;28.29;101634.47;5052844;28;20217;-64
2023/06/13 07:00:08;;;;;;;3.73;2.13;;;22.10;35.70;;;24.98;28.23;101630.25;5052866;28;20701;-64
2023/06/13 07:02:35;;;;;;;3.60;2.33;;;22.20;35.50;;;25.02;27.72;101636.78;5052759;28;20178;-65
2023/06/13 07:05:03;;;;;;;2.60;2.40;;;22.20;35.40;;;25.10;27.58;101633.66;5052456;28;20500;-63
2023/06/13 07:07:30;;;;;;;9.60;4.10;;;22.30;35.30;;;25.18;27.96;101630.53;5048719;28;20194;-62
2023/06/13 07:09:58;;;;;;;6.90;2.40;;;22.40;35.10;;;25.24;27.92;101629.53;5046995;28;20197;-63
2023/06/13 07:12:25;;;;;;;3.70;3.20;;;22.40;34.90;;;25.32;27.89;101630.97;5032692;28;20214;-66
2023/06/13 07:14:52;;;;;;;3.43;2.33;;;22.50;35.00;;;25.40;27.79;101638.63;5032205;28;20257;-64
2023/06/13 07:17:19;;;;;;;3.87;2.47;;;22.60;35.10;;;25.46;27.08;101633.06;5032900;28;20225;-67
2023/06/13 07:19:46;;;;;;;6.70;3.03;;;22.60;34.80;;;25.51;27.59;101641.22;5032790;28;20237;-62
2023/06/13 07:22:14;;;;;;;4.23;2.53;;;22.70;34.90;;;25.55;27.77;101633.47;5034152;28;20528;-65
2023/06/13 07:24:41;;;;;;;3.23;2.40;;;22.80;35.10;;;25.60;27.28;101632.72;5054259;28;20227;-64
2023/06/13 07:27:10;;;;;;;5.80;2.50;;;22.80;35.00;;;25.69;28.01;101636.59;5037671;28;20198;-65
2023/06/13 07:29:38;;;;;;;3.70;2.53;;;22.90;35.10;;;25.76;27.86;101638.03;5036704;28;20256;-64
2023/06/13 07:32:06;;;;;;;6.57;4.00;;;23.00;35.00;;;25.88;27.27;101645.97;5036523;28;20794;-65
2023/06/13 07:34:33;;;;;;;6.87;5.10;;;23.00;35.00;;;26.00;27.72;101641.25;5036088;28;20232;-64
2023/06/13 07:37:21;;;;;;;3.83;2.40;;;23.10;35.10;;;26.07;26.78;101636.47;5045051;28;20677;-65
2023/06/13 07:39:48;;;;;;;11.43;9.93;;;23.30;34.60;;;26.10;26.37;101644.06;5056623;28;20251;-64
2023/06/13 07:42:17;;;;;;;4.50;2.50;;;23.30;34.10;;;26.13;27.11;101636.28;5056684;28;20718;-64
2023/06/13 07:44:44;;;;;;;2.87;2.10;;;23.40;34.20;;;26.10;27.40;101633.25;5055994;28;20304;-63
2023/06/13 07:47:11;;;;;;;7.90;6.47;;;23.50;34.40;;;26.19;26.59;101637.97;5055196;28;20232;-64
2023/06/13 07:49:38;;;;;;;3.80;2.90;;;23.50;34.10;;;26.30;27.12;101633.47;5050561;28;20340;-67
2023/06/13 07:52:07;;;;;;;3.07;2.47;;;23.60;34.20;;;26.44;26.98;101640.06;5040827;28;20326;-65
2023/06/13 07:54:36;;;;;;;3.87;2.23;;;23.70;34.10;;;26.56;26.69;101635.31;5036971;28;20395;-64
2023/06/13 07:57:04;;;;;;;3.33;2.20;;;23.80;34.10;;;26.69;26.90;101636.75;5053572;28;20198;-64
2023/06/13 07:59:54;;;;;;;3.67;2.30;;;23.80;34.10;;;26.85;26.65;101642.03;5055115;28;20635;-65
2023/06/13 08:02:22;;;;;;;3.93;2.93;;;24.00;34.00;;;26.95;26.21;101640.47;5051778;28;20225;-65
2023/06/13 08:04:49;;;;;;;3.27;2.00;;;24.10;33.90;;;27.01;26.12;101625.91;5055158;28;20217;-63
2023/06/13 08:07:21;;;;;;;4.43;2.37;;;24.10;33.70;;;27.11;25.67;101634.06;5053309;28;20634;-65
2023/06/13 08:09:48;;;;;;;2.60;2.40;;;24.30;33.50;;;27.17;25.66;101635.75;5036577;28;20265;-66
2023/06/13 08:12:15;;;;;;;2.77;2.40;;;24.40;32.50;;;27.23;25.36;101631.97;5040992;28;20261;-63
2023/06/13 08:14:42;;;;;;;3.80;2.73;;;24.40;32.40;;;27.33;24.97;101632.03;5035498;28;20248;-64
2023/06/13 08:17:11;;;;;;;2.60;2.40;;;24.50;32.40;;;27.91;24.73;101631.72;5036048;28;20256;-64
2023/06/13 08:19:38;;;;;;;5.10;3.10;;;24.60;32.60;;;29.06;23.72;101630.13;5036391;28;20190;-63
2023/06/13 08:22:06;;;;;;;5.80;3.03;;;24.90;32.30;;;30.42;22.04;101631.34;5036650;28;20197;-64
2023/06/13 08:24:33;;;;;;;2.93;2.53;;;25.40;31.70;;;31.95;21.13;101633.66;5035695;28;20601;-63
2023/06/13 08:27:00;;;;;;;8.37;5.23;;;26.10;31.30;;;33.51;19.89;101626.53;5053670;28;20539;-63
2023/06/13 08:29:28;;;;;;;7.73;4.73;;;26.90;30.70;;;34.82;18.08;101626.16;5055492;28;20193;-63
2023/06/13 08:31:56;;;;;;;10.47;7.67;;;27.80;29.00;;;36.03;17.28;101631.63;5055290;28;20292;-62
2023/06/13 08:34:26;;;;;;;3.77;2.97;;;28.70;28.50;;;37.24;15.99;101621.91;5053375;28;20630;-63
2023/06/13 08:36:53;;;;;;;3.73;2.90;;;29.60;27.60;;;38.28;15.38;101631.84;5054171;28;20719;-63
2023/06/13 08:39:20;;;;;;;4.73;3.40;;;30.40;25.80;;;39.25;14.71;101630.03;5055989;28;20197;-65
2023/06/13 08:41:49;;;;;;;4.83;4.17;;;31.30;25.10;;;40.01;14.47;101623.66;5054918;28;20557;-63
2023/06/13 08:44:17;;;;;;;4.00;3.70;;;31.90;24.30;;;40.88;13.45;101613.41;5037114;28;20202;-63
2023/06/13 08:46:44;;;;;;;4.13;2.95;;;32.70;24.00;;;41.58;12.45;101613.44;5054668;28;20199;-64
2023/06/13 08:49:11;;;;;;;3.38;2.60;;;33.30;22.90;;;42.15;12.80;101618.97;5053689;28;20296;-64
2023/06/13 08:51:43;;;;;;;2.95;2.70;;;34.00;22.40;;;42.79;12.08;101617.38;5054826;28;20272;-64
2023/06/13 08:54:13;;;;;;;4.97;2.60;;;34.60;22.00;;;43.38;11.33;101608.38;5053954;28;20225;-63
2023/06/13 08:56:41;;;;;;;3.00;2.65;;;35.10;20.60;;;43.48;11.28;101621.63;5054889;28;20280;-63
2023/06/13 08:59:17;;;;;;;4.10;3.20;;;35.50;20.30;;;43.80;11.28;101622.03;5054753;28;20682;-63
2023/06/13 09:01:45;;;;;;;4.90;2.92;;;35.90;19.80;;;43.83;10.52;101615.72;5054557;28;20700;-62
2023/06/13 09:04:15;;;;;;;2.85;2.58;;;36.20;19.30;;;43.97;10.73;101616.69;5054141;28;20265;-63
2023/06/13 09:06:45;;;;;;;4.97;3.05;;;36.50;19.40;;;44.38;10.39;101617.53;5045254;28;20190;-65
2023/06/13 09:09:13;;;;;;;3.30;3.00;;;36.70;19.20;;;44.85;10.60;101617.56;5047558;28;20253;-64
2023/06/13 09:11:41;;;;;;;4.40;2.92;;;37.00;19.00;;;45.13;10.79;101616.16;5038537;28;20238;-64
2023/06/13 09:14:10;;;;;;;3.00;2.80;;;37.30;18.90;;;45.46;10.29;101608.41;5034031;28;20652;-64
2023/06/13 09:16:38;;;;;;;3.38;3.08;;;37.60;18.20;;;45.57;9.39;101611.25;5034544;28;20667;-64
2023/06/13 09:19:05;;;;;;;4.30;3.90;;;37.80;17.80;;;45.41;9.21;101606.00;5050374;28;20213;-64
2023/06/13 09:21:33;;;;;;;3.97;3.65;;;38.00;17.30;;;45.53;9.72;101602.06;5053794;28;20272;-64
2023/06/13 09:24:03;;;;;;;4.47;3.00;;;38.20;17.60;;;45.74;9.95;101601.38;5039527;28;20195;-64
2023/06/13 09:26:30;;;;;;;3.22;2.85;;;38.20;17.40;;;45.72;9.58;101598.97;5052431;28;20569;-66
2023/06/13 09:28:58;;;;;;;3.88;3.17;;;38.30;17.10;;;46.05;9.39;101601.47;5039012;28;20730;-64
2023/06/13 09:31:29;;;;;;;6.68;2.80;;;38.30;17.00;;;46.43;9.32;101596.38;5040540;28;20556;-64
2023/06/13 09:34:02;;;;;;;3.08;2.85;;;38.50;17.10;;;46.78;8.78;101599.16;5053261;28;20251;-66
2023/06/13 09:36:29;;;;;;;4.55;2.78;;;38.70;17.00;;;47.11;8.48;101595.94;5055290;28;20224;-68
2023/06/13 09:38:59;;;;;;;4.90;3.20;;;38.90;16.40;;;47.33;8.38;101593.88;5051676;28;20280;-65
2023/06/13 09:41:31;;;;;;;3.35;3.08;;;39.10;16.20;;;47.58;7.96;101587.00;5051283;28;20273;-64
2023/06/13 09:44:04;;;;;;;3.30;3.10;;;39.30;15.80;;;47.98;7.76;101593.16;5053980;28;20241;-63
2023/06/13 09:46:35;;;;;;;4.38;3.42;;;39.40;15.80;;;48.38;7.69;101584.09;5054348;28;20241;-64
2023/06/13 09:49:02;;;;;;;8.48;2.78;;;39.60;15.70;;;48.51;7.53;101590.81;5052165;28;20200;-63
2023/06/13 09:51:32;;;;;;;3.92;2.80;;;39.60;15.00;;;48.41;7.11;101585.28;5051714;28;20927;-64
2023/06/13 09:54:00;;;;;;;3.50;3.28;;;39.70;14.90;;;48.44;7.37;101582.44;5051146;28;20284;-63
2023/06/13 09:56:29;;;;;;;4.28;3.97;;;39.80;15.10;;;48.59;7.46;101578.34;5050099;28;20246;-64
2023/06/13 09:58:56;;;;;;;3.30;3.00;;;40.00;15.10;;;48.76;6.96;101576.59;5052509;28;20275;-63
2023/06/13 10:01:23;;;;;;;4.70;3.35;;;40.10;14.50;;;48.62;7.34;101577.50;5052123;28;20178;-63
2023/06/13 10:03:51;;;;;;;3.80;3.40;;;40.10;14.60;;;48.64;6.81;101569.50;5051873;28;20198;-64
2023/06/13 10:06:19;;;;;;;4.22;3.20;;;40.10;13.60;;;48.35;6.74;101575.75;5053034;28;20245;-64
2023/06/13 10:08:46;;;;;;;4.30;3.45;;;40.20;14.40;;;48.15;7.01;101575.50;5050843;28;20714;-64
2023/06/13 10:11:15;;;;;;;3.65;3.35;;;40.20;14.00;;;48.09;7.13;101569.53;5050394;28;20205;-63
2023/06/13 10:14:02;;;;;;;3.40;3.10;;;40.10;14.00;;;48.20;6.84;101567.47;5046174;28;20210;-65
2023/06/13 10:16:37;;;;;;;5.38;3.70;;;40.10;14.10;;;48.53;7.13;101562.41;5045560;28;20189;-65
2023/06/13 10:19:16;;;;;;;7.07;5.10;;;40.10;14.00;;;48.59;6.68;101572.75;5053411;28;20221;-65